sensor_id;sensor_type;location;lat;lon;timestamp;P1;durP1;ratioP1;P2;durP2;ratioP2
28519;SDS011;15732;48.534;20.382;2022-12-18T00:01:56;23.35;;;9.40;;
28519;SDS011;15732;48.534;20.382;2022-12-18T00:04:24;21.15;;;8.18;;
28519;SDS011;15732;48.534;20.382;2022-12-18T00:09:18;25.30;;;9.88;;
28519;SDS011;15732;48.534;20.382;2022-12-18T00:11:50;22.30;;;9.23;;
28519;SDS011;15732;48.534;20.382;2022-12-18T00:14:21;36.42;;;11.50;;
28519;SDS011;15732;48.534;20.382;2022-12-18T00:16:48;31.25;;;12.60;;
28519;SDS011;15732;48.534;20.382;2022-12-18T00:19:16;46.80;;;14.85;;
28519;SDS011;15732;48.534;20.382;2022-12-18T00:21:43;48.55;;;15.40;;
28519;SDS011;15732;48.534;20.382;2022-12-18T00:24:10;35.10;;;13.80;;
28519;SDS011;15732;48.534;20.382;2022-12-18T00:26:38;33.67;;;14.30;;
28519;SDS011;15732;48.534;20.382;2022-12-18T00:29:10;36.22;;;14.02;;
28519;SDS011;15732;48.534;20.382;2022-12-18T00:31:58;37.28;;;12.95;;
28519;SDS011;15732;48.534;20.382;2022-12-18T00:34:26;37.38;;;13.48;;
28519;SDS011;15732;48.534;20.382;2022-12-18T00:36:53;39.95;;;15.43;;
28519;SDS011;15732;48.534;20.382;2022-12-18T00:39:20;42.05;;;14.10;;
28519;SDS011;15732;48.534;20.382;2022-12-18T00:41:48;41.53;;;13.52;;
28519;SDS011;15732;48.534;20.382;2022-12-18T00:44:33;30.88;;;12.52;;
28519;SDS011;15732;48.534;20.382;2022-12-18T00:47:01;45.22;;;17.40;;
28519;SDS011;15732;48.534;20.382;2022-12-18T00:49:32;32.08;;;14.40;;
28519;SDS011;15732;48.534;20.382;2022-12-18T00:51:59;38.03;;;14.52;;
28519;SDS011;15732;48.534;20.382;2022-12-18T00:54:27;35.20;;;14.23;;
28519;SDS011;15732;48.534;20.382;2022-12-18T00:56:54;34.15;;;14.57;;
28519;SDS011;15732;48.534;20.382;2022-12-18T00:59:22;29.92;;;13.00;;
28519;SDS011;15732;48.534;20.382;2022-12-18T01:01:49;33.70;;;13.70;;
28519;SDS011;15732;48.534;20.382;2022-12-18T01:04:20;38.03;;;15.15;;
28519;SDS011;15732;48.534;20.382;2022-12-18T01:06:47;44.78;;;15.43;;
28519;SDS011;15732;48.534;20.382;2022-12-18T01:09:15;35.97;;;15.32;;
28519;SDS011;15732;48.534;20.382;2022-12-18T01:11:42;44.75;;;15.32;;
28519;SDS011;15732;48.534;20.382;2022-12-18T01:14:13;36.90;;;14.27;;
28519;SDS011;15732;48.534;20.382;2022-12-18T01:16:40;28.60;;;13.70;;
28519;SDS011;15732;48.534;20.382;2022-12-18T01:19:07;34.38;;;13.20;;
28519;SDS011;15732;48.534;20.382;2022-12-18T01:21:35;35.08;;;15.57;;
28519;SDS011;15732;48.534;20.382;2022-12-18T01:24:03;34.47;;;12.68;;
28519;SDS011;15732;48.534;20.382;2022-12-18T01:26:31;33.28;;;13.55;;
28519;SDS011;15732;48.534;20.382;2022-12-18T01:28:58;33.67;;;13.23;;
28519;SDS011;15732;48.534;20.382;2022-12-18T01:31:26;25.92;;;11.55;;
28519;SDS011;15732;48.534;20.382;2022-12-18T01:33:56;32.67;;;13.18;;
28519;SDS011;15732;48.534;20.382;2022-12-18T01:36:27;33.75;;;11.57;;
28519;SDS011;15732;48.534;20.382;2022-12-18T01:38:55;34.28;;;12.63;;
28519;SDS011;15732;48.534;20.382;2022-12-18T01:41:24;32.38;;;11.57;;
28519;SDS011;15732;48.534;20.382;2022-12-18T01:43:55;24.08;;;11.70;;
28519;SDS011;15732;48.534;20.382;2022-12-18T01:46:24;28.52;;;11.32;;
28519;SDS011;15732;48.534;20.382;2022-12-18T01:48:56;31.02;;;13.00;;
28519;SDS011;15732;48.534;20.382;2022-12-18T01:51:23;29.33;;;12.45;;
28519;SDS011;15732;48.534;20.382;2022-12-18T01:56:19;29.15;;;10.65;;
28519;SDS011;15732;48.534;20.382;2022-12-18T02:01:25;14.93;;;7.53;;
28519;SDS011;15732;48.534;20.382;2022-12-18T02:03:53;22.58;;;10.00;;
28519;SDS011;15732;48.534;20.382;2022-12-18T02:06:23;27.20;;;11.00;;
28519;SDS011;15732;48.534;20.382;2022-12-18T02:09:07;35.90;;;11.35;;
28519;SDS011;15732;48.534;20.382;2022-12-18T02:12:06;30.33;;;10.63;;
28519;SDS011;15732;48.534;20.382;2022-12-18T02:22:25;23.83;;;9.73;;
28519;SDS011;15732;48.534;20.382;2022-12-18T02:27:56;21.90;;;7.47;;
28519;SDS011;15732;48.534;20.382;2022-12-18T02:30:29;7.57;;;3.88;;
28519;SDS011;15732;48.534;20.382;2022-12-18T02:32:59;13.15;;;6.00;;
28519;SDS011;15732;48.534;20.382;2022-12-18T02:35:29;12.43;;;4.32;;
28519;SDS011;15732;48.534;20.382;2022-12-18T02:37:58;21.10;;;5.70;;
28519;SDS011;15732;48.534;20.382;2022-12-18T02:40:26;15.38;;;6.70;;
28519;SDS011;15732;48.534;20.382;2022-12-18T02:42:54;12.07;;;4.07;;
28519;SDS011;15732;48.534;20.382;2022-12-18T02:45:28;10.27;;;4.47;;
28519;SDS011;15732;48.534;20.382;2022-12-18T02:47:55;8.88;;;3.75;;
28519;SDS011;15732;48.534;20.382;2022-12-18T02:50:35;10.38;;;4.75;;
28519;SDS011;15732;48.534;20.382;2022-12-18T02:56:05;14.85;;;5.90;;
28519;SDS011;15732;48.534;20.382;2022-12-18T03:04:34;14.93;;;3.95;;
28519;SDS011;15732;48.534;20.382;2022-12-18T03:07:11;9.45;;;3.53;;
28519;SDS011;15732;48.534;20.382;2022-12-18T03:09:44;14.25;;;4.32;;
28519;SDS011;15732;48.534;20.382;2022-12-18T03:12:23;7.38;;;3.22;;
28519;SDS011;15732;48.534;20.382;2022-12-18T03:14:59;11.80;;;3.75;;
28519;SDS011;15732;48.534;20.382;2022-12-18T03:18:07;9.63;;;2.63;;
28519;SDS011;15732;48.534;20.382;2022-12-18T03:20:39;16.92;;;5.28;;
28519;SDS011;15732;48.534;20.382;2022-12-18T03:23:10;12.75;;;4.13;;
28519;SDS011;15732;48.534;20.382;2022-12-18T03:25:42;6.18;;;3.17;;
28519;SDS011;15732;48.534;20.382;2022-12-18T03:28:12;11.00;;;3.85;;
28519;SDS011;15732;48.534;20.382;2022-12-18T03:30:45;11.73;;;6.07;;
28519;SDS011;15732;48.534;20.382;2022-12-18T03:33:18;17.08;;;4.65;;
28519;SDS011;15732;48.534;20.382;2022-12-18T03:35:56;12.38;;;3.63;;
28519;SDS011;15732;48.534;20.382;2022-12-18T03:38:27;16.80;;;4.90;;
28519;SDS011;15732;48.534;20.382;2022-12-18T03:41:13;13.52;;;5.47;;
28519;SDS011;15732;48.534;20.382;2022-12-18T03:47:04;10.32;;;3.95;;
28519;SDS011;15732;48.534;20.382;2022-12-18T03:49:57;10.80;;;4.40;;
28519;SDS011;15732;48.534;20.382;2022-12-18T03:55:25;12.63;;;4.35;;
28519;SDS011;15732;48.534;20.382;2022-12-18T03:57:56;6.93;;;2.83;;
28519;SDS011;15732;48.534;20.382;2022-12-18T04:00:25;15.15;;;4.65;;
28519;SDS011;15732;48.534;20.382;2022-12-18T04:02:54;11.15;;;3.95;;
28519;SDS011;15732;48.534;20.382;2022-12-18T04:05:23;13.68;;;5.55;;
28519;SDS011;15732;48.534;20.382;2022-12-18T04:07:52;9.88;;;4.05;;
28519;SDS011;15732;48.534;20.382;2022-12-18T04:10:21;11.60;;;5.43;;
28519;SDS011;15732;48.534;20.382;2022-12-18T04:12:48;13.30;;;5.05;;
28519;SDS011;15732;48.534;20.382;2022-12-18T04:15:15;8.55;;;4.43;;
28519;SDS011;15732;48.534;20.382;2022-12-18T04:17:47;15.13;;;3.50;;
28519;SDS011;15732;48.534;20.382;2022-12-18T04:20:15;11.75;;;4.15;;
28519;SDS011;15732;48.534;20.382;2022-12-18T04:22:43;18.23;;;6.03;;
28519;SDS011;15732;48.534;20.382;2022-12-18T04:25:11;12.38;;;4.78;;
28519;SDS011;15732;48.534;20.382;2022-12-18T04:27:42;10.10;;;5.20;;
28519;SDS011;15732;48.534;20.382;2022-12-18T04:30:09;18.10;;;4.78;;
28519;SDS011;15732;48.534;20.382;2022-12-18T04:32:38;8.60;;;3.28;;
28519;SDS011;15732;48.534;20.382;2022-12-18T04:35:05;6.35;;;3.50;;
28519;SDS011;15732;48.534;20.382;2022-12-18T04:37:36;12.10;;;3.17;;
28519;SDS011;15732;48.534;20.382;2022-12-18T04:40:03;15.02;;;3.47;;
28519;SDS011;15732;48.534;20.382;2022-12-18T04:42:31;8.38;;;4.07;;
28519;SDS011;15732;48.534;20.382;2022-12-18T04:45:02;10.55;;;3.05;;
28519;SDS011;15732;48.534;20.382;2022-12-18T04:47:31;14.52;;;3.70;;
28519;SDS011;15732;48.534;20.382;2022-12-18T04:49:58;11.07;;;4.38;;
28519;SDS011;15732;48.534;20.382;2022-12-18T04:52:25;7.32;;;3.03;;
28519;SDS011;15732;48.534;20.382;2022-12-18T04:54:53;8.43;;;3.75;;
28519;SDS011;15732;48.534;20.382;2022-12-18T04:57:20;9.00;;;4.22;;
28519;SDS011;15732;48.534;20.382;2022-12-18T04:59:48;10.40;;;3.42;;
28519;SDS011;15732;48.534;20.382;2022-12-18T05:02:15;9.98;;;3.70;;
28519;SDS011;15732;48.534;20.382;2022-12-18T05:04:43;13.50;;;3.42;;
28519;SDS011;15732;48.534;20.382;2022-12-18T05:07:10;9.88;;;3.65;;
28519;SDS011;15732;48.534;20.382;2022-12-18T05:09:37;10.63;;;3.25;;
28519;SDS011;15732;48.534;20.382;2022-12-18T05:12:04;13.20;;;4.03;;
28519;SDS011;15732;48.534;20.382;2022-12-18T05:14:32;10.60;;;4.03;;
28519;SDS011;15732;48.534;20.382;2022-12-18T05:17:00;7.85;;;3.80;;
28519;SDS011;15732;48.534;20.382;2022-12-18T05:19:27;8.23;;;3.30;;
28519;SDS011;15732;48.534;20.382;2022-12-18T05:21:58;12.20;;;3.22;;
28519;SDS011;15732;48.534;20.382;2022-12-18T05:24:25;10.13;;;3.72;;
28519;SDS011;15732;48.534;20.382;2022-12-18T05:26:53;7.38;;;3.22;;
28519;SDS011;15732;48.534;20.382;2022-12-18T05:29:24;9.35;;;3.45;;
28519;SDS011;15732;48.534;20.382;2022-12-18T05:31:51;9.98;;;3.67;;
28519;SDS011;15732;48.534;20.382;2022-12-18T05:34:18;12.93;;;4.40;;
28519;SDS011;15732;48.534;20.382;2022-12-18T05:36:46;10.68;;;4.22;;
28519;SDS011;15732;48.534;20.382;2022-12-18T05:39:12;8.68;;;3.65;;
28519;SDS011;15732;48.534;20.382;2022-12-18T05:41:39;7.28;;;2.60;;
28519;SDS011;15732;48.534;20.382;2022-12-18T05:44:07;9.15;;;3.22;;
28519;SDS011;15732;48.534;20.382;2022-12-18T05:46:34;9.07;;;3.35;;
28519;SDS011;15732;48.534;20.382;2022-12-18T05:49:02;4.43;;;2.90;;
28519;SDS011;15732;48.534;20.382;2022-12-18T05:51:29;7.47;;;3.30;;
28519;SDS011;15732;48.534;20.382;2022-12-18T05:53:57;10.23;;;3.65;;
28519;SDS011;15732;48.534;20.382;2022-12-18T05:56:28;8.98;;;3.08;;
28519;SDS011;15732;48.534;20.382;2022-12-18T05:58:55;6.75;;;3.25;;
28519;SDS011;15732;48.534;20.382;2022-12-18T06:01:24;8.05;;;3.95;;
28519;SDS011;15732;48.534;20.382;2022-12-18T06:03:52;7.95;;;3.03;;
28519;SDS011;15732;48.534;20.382;2022-12-18T06:06:21;12.73;;;3.58;;
28519;SDS011;15732;48.534;20.382;2022-12-18T06:08:50;8.23;;;3.53;;
28519;SDS011;15732;48.534;20.382;2022-12-18T06:11:21;9.85;;;3.40;;
28519;SDS011;15732;48.534;20.382;2022-12-18T06:13:50;7.43;;;3.50;;
28519;SDS011;15732;48.534;20.382;2022-12-18T06:16:18;7.32;;;3.35;;
28519;SDS011;15732;48.534;20.382;2022-12-18T06:18:45;9.23;;;3.47;;
28519;SDS011;15732;48.534;20.382;2022-12-18T06:21:11;6.45;;;2.88;;
28519;SDS011;15732;48.534;20.382;2022-12-18T06:23:39;7.03;;;2.53;;
28519;SDS011;15732;48.534;20.382;2022-12-18T06:26:07;9.48;;;2.88;;
28519;SDS011;15732;48.534;20.382;2022-12-18T06:28:35;7.68;;;2.70;;
28519;SDS011;15732;48.534;20.382;2022-12-18T06:31:03;5.03;;;2.72;;
28519;SDS011;15732;48.534;20.382;2022-12-18T06:33:35;6.30;;;3.00;;
28519;SDS011;15732;48.534;20.382;2022-12-18T06:36:03;6.57;;;3.13;;
28519;SDS011;15732;48.534;20.382;2022-12-18T06:38:31;6.80;;;2.90;;
28519;SDS011;15732;48.534;20.382;2022-12-18T06:41:09;13.90;;;5.05;;
28519;SDS011;15732;48.534;20.382;2022-12-18T06:43:37;13.07;;;5.30;;
28519;SDS011;15732;48.534;20.382;2022-12-18T06:46:08;13.57;;;4.25;;
28519;SDS011;15732;48.534;20.382;2022-12-18T06:48:39;17.45;;;4.72;;
28519;SDS011;15732;48.534;20.382;2022-12-18T06:51:07;18.85;;;6.70;;
28519;SDS011;15732;48.534;20.382;2022-12-18T06:53:34;16.92;;;5.38;;
28519;SDS011;15732;48.534;20.382;2022-12-18T06:56:03;7.80;;;2.35;;
28519;SDS011;15732;48.534;20.382;2022-12-18T06:58:32;6.82;;;3.25;;
28519;SDS011;15732;48.534;20.382;2022-12-18T07:01:05;6.03;;;2.75;;
28519;SDS011;15732;48.534;20.382;2022-12-18T07:03:39;9.27;;;3.72;;
28519;SDS011;15732;48.534;20.382;2022-12-18T07:06:13;17.27;;;3.55;;
28519;SDS011;15732;48.534;20.382;2022-12-18T07:08:41;8.23;;;3.55;;
28519;SDS011;15732;48.534;20.382;2022-12-18T07:11:13;7.72;;;2.80;;
28519;SDS011;15732;48.534;20.382;2022-12-18T07:13:40;14.35;;;3.30;;
28519;SDS011;15732;48.534;20.382;2022-12-18T07:16:08;9.70;;;3.25;;
28519;SDS011;15732;48.534;20.382;2022-12-18T07:18:36;10.05;;;3.35;;
28519;SDS011;15732;48.534;20.382;2022-12-18T07:21:04;9.85;;;3.55;;
28519;SDS011;15732;48.534;20.382;2022-12-18T07:23:33;6.78;;;1.92;;
28519;SDS011;15732;48.534;20.382;2022-12-18T07:26:04;10.63;;;3.33;;
28519;SDS011;15732;48.534;20.382;2022-12-18T07:28:33;6.82;;;2.88;;
28519;SDS011;15732;48.534;20.382;2022-12-18T07:31:04;8.15;;;3.25;;
28519;SDS011;15732;48.534;20.382;2022-12-18T07:33:48;6.05;;;3.05;;
28519;SDS011;15732;48.534;20.382;2022-12-18T07:36:15;10.02;;;2.85;;
28519;SDS011;15732;48.534;20.382;2022-12-18T07:38:42;7.97;;;2.67;;
28519;SDS011;15732;48.534;20.382;2022-12-18T07:41:13;6.93;;;2.65;;
28519;SDS011;15732;48.534;20.382;2022-12-18T07:43:40;4.50;;;1.87;;
28519;SDS011;15732;48.534;20.382;2022-12-18T07:46:08;5.57;;;2.72;;
28519;SDS011;15732;48.534;20.382;2022-12-18T07:48:36;9.47;;;3.63;;
28519;SDS011;15732;48.534;20.382;2022-12-18T07:51:03;7.72;;;2.95;;
28519;SDS011;15732;48.534;20.382;2022-12-18T07:53:32;9.85;;;3.05;;
28519;SDS011;15732;48.534;20.382;2022-12-18T07:56:01;6.35;;;2.72;;
28519;SDS011;15732;48.534;20.382;2022-12-18T07:58:48;4.63;;;2.13;;
28519;SDS011;15732;48.534;20.382;2022-12-18T08:01:15;9.73;;;3.60;;
28519;SDS011;15732;48.534;20.382;2022-12-18T08:03:42;5.68;;;2.90;;
28519;SDS011;15732;48.534;20.382;2022-12-18T08:06:10;8.10;;;3.20;;
28519;SDS011;15732;48.534;20.382;2022-12-18T08:08:37;7.55;;;2.65;;
28519;SDS011;15732;48.534;20.382;2022-12-18T08:11:07;6.95;;;2.78;;
28519;SDS011;15732;48.534;20.382;2022-12-18T08:13:34;7.68;;;2.92;;
28519;SDS011;15732;48.534;20.382;2022-12-18T08:16:05;9.70;;;3.40;;
28519;SDS011;15732;48.534;20.382;2022-12-18T08:18:48;6.80;;;2.30;;
28519;SDS011;15732;48.534;20.382;2022-12-18T08:21:22;9.48;;;4.28;;
28519;SDS011;15732;48.534;20.382;2022-12-18T08:23:52;6.93;;;2.90;;
28519;SDS011;15732;48.534;20.382;2022-12-18T08:26:20;6.13;;;2.67;;
28519;SDS011;15732;48.534;20.382;2022-12-18T08:28:49;11.13;;;3.03;;
28519;SDS011;15732;48.534;20.382;2022-12-18T08:31:17;6.95;;;2.65;;
28519;SDS011;15732;48.534;20.382;2022-12-18T08:33:44;7.78;;;3.47;;
28519;SDS011;15732;48.534;20.382;2022-12-18T08:36:15;9.57;;;2.92;;
28519;SDS011;15732;48.534;20.382;2022-12-18T08:38:43;11.27;;;3.58;;
28519;SDS011;15732;48.534;20.382;2022-12-18T08:41:11;7.82;;;2.80;;
28519;SDS011;15732;48.534;20.382;2022-12-18T08:43:38;11.25;;;2.85;;
28519;SDS011;15732;48.534;20.382;2022-12-18T08:46:25;7.70;;;3.30;;
28519;SDS011;15732;48.534;20.382;2022-12-18T08:48:54;9.00;;;2.97;;
28519;SDS011;15732;48.534;20.382;2022-12-18T08:51:21;8.57;;;3.72;;
28519;SDS011;15732;48.534;20.382;2022-12-18T08:53:48;6.80;;;2.40;;
28519;SDS011;15732;48.534;20.382;2022-12-18T08:56:16;7.55;;;3.65;;
28519;SDS011;15732;48.534;20.382;2022-12-18T08:58:43;10.50;;;4.10;;
28519;SDS011;15732;48.534;20.382;2022-12-18T09:01:10;7.45;;;3.67;;
28519;SDS011;15732;48.534;20.382;2022-12-18T09:06:06;10.80;;;3.88;;
28519;SDS011;15732;48.534;20.382;2022-12-18T09:08:33;9.05;;;3.50;;
28519;SDS011;15732;48.534;20.382;2022-12-18T09:11:02;11.38;;;4.22;;
28519;SDS011;15732;48.534;20.382;2022-12-18T09:13:29;10.45;;;4.15;;
28519;SDS011;15732;48.534;20.382;2022-12-18T09:15:58;11.88;;;4.07;;
28519;SDS011;15732;48.534;20.382;2022-12-18T09:18:24;8.35;;;3.05;;
28519;SDS011;15732;48.534;20.382;2022-12-18T09:20:51;9.60;;;4.78;;
28519;SDS011;15732;48.534;20.382;2022-12-18T09:23:19;8.55;;;3.28;;
28519;SDS011;15732;48.534;20.382;2022-12-18T09:25:46;9.20;;;4.40;;
28519;SDS011;15732;48.534;20.382;2022-12-18T09:28:15;7.63;;;3.42;;
28519;SDS011;15732;48.534;20.382;2022-12-18T09:30:47;13.45;;;4.07;;
28519;SDS011;15732;48.534;20.382;2022-12-18T09:33:19;7.93;;;3.60;;
28519;SDS011;15732;48.534;20.382;2022-12-18T09:35:46;9.88;;;1.80;;
28519;SDS011;15732;48.534;20.382;2022-12-18T09:38:18;10.40;;;3.60;;
28519;SDS011;15732;48.534;20.382;2022-12-18T09:40:52;3.92;;;2.00;;
28519;SDS011;15732;48.534;20.382;2022-12-18T09:43:45;12.18;;;3.55;;
28519;SDS011;15732;48.534;20.382;2022-12-18T09:46:31;7.07;;;3.03;;
28519;SDS011;15732;48.534;20.382;2022-12-18T09:49:02;8.32;;;3.85;;
28519;SDS011;15732;48.534;20.382;2022-12-18T09:51:35;9.15;;;3.30;;
28519;SDS011;15732;48.534;20.382;2022-12-18T09:54:11;8.18;;;4.05;;
28519;SDS011;15732;48.534;20.382;2022-12-18T09:56:42;6.97;;;3.63;;
28519;SDS011;15732;48.534;20.382;2022-12-18T10:01:48;9.88;;;3.65;;
28519;SDS011;15732;48.534;20.382;2022-12-18T10:04:15;10.20;;;3.70;;
28519;SDS011;15732;48.534;20.382;2022-12-18T10:12:13;7.68;;;3.50;;
28519;SDS011;15732;48.534;20.382;2022-12-18T10:20:44;12.63;;;4.18;;
28519;SDS011;15732;48.534;20.382;2022-12-18T10:23:23;11.63;;;3.55;;
28519;SDS011;15732;48.534;20.382;2022-12-18T10:26:04;9.27;;;3.65;;
28519;SDS011;15732;48.534;20.382;2022-12-18T10:28:40;15.95;;;5.00;;
28519;SDS011;15732;48.534;20.382;2022-12-18T10:31:18;10.20;;;3.78;;
28519;SDS011;15732;48.534;20.382;2022-12-18T10:34:09;10.15;;;3.40;;
28519;SDS011;15732;48.534;20.382;2022-12-18T10:36:37;18.35;;;3.78;;
28519;SDS011;15732;48.534;20.382;2022-12-18T10:39:24;7.38;;;3.03;;
28519;SDS011;15732;48.534;20.382;2022-12-18T10:42:10;11.43;;;3.00;;
28519;SDS011;15732;48.534;20.382;2022-12-18T10:44:42;9.48;;;3.33;;
28519;SDS011;15732;48.534;20.382;2022-12-18T10:47:15;5.40;;;3.42;;
28519;SDS011;15732;48.534;20.382;2022-12-18T10:49:49;10.85;;;3.90;;
28519;SDS011;15732;48.534;20.382;2022-12-18T10:52:21;13.43;;;3.60;;
28519;SDS011;15732;48.534;20.382;2022-12-18T10:54:59;13.05;;;4.22;;
28519;SDS011;15732;48.534;20.382;2022-12-18T11:00:28;8.48;;;3.85;;
28519;SDS011;15732;48.534;20.382;2022-12-18T11:02:56;13.82;;;4.03;;
28519;SDS011;15732;48.534;20.382;2022-12-18T11:05:24;12.80;;;4.43;;
28519;SDS011;15732;48.534;20.382;2022-12-18T11:07:55;10.93;;;4.20;;
28519;SDS011;15732;48.534;20.382;2022-12-18T11:10:26;9.75;;;3.28;;
28519;SDS011;15732;48.534;20.382;2022-12-18T11:15:58;9.07;;;4.28;;
28519;SDS011;15732;48.534;20.382;2022-12-18T11:18:32;7.95;;;3.28;;
28519;SDS011;15732;48.534;20.382;2022-12-18T11:21:07;10.63;;;4.65;;
28519;SDS011;15732;48.534;20.382;2022-12-18T11:24:12;9.68;;;2.80;;
28519;SDS011;15732;48.534;20.382;2022-12-18T11:26:45;12.48;;;5.07;;
28519;SDS011;15732;48.534;20.382;2022-12-18T11:29:17;10.07;;;4.45;;
28519;SDS011;15732;48.534;20.382;2022-12-18T11:31:49;12.00;;;5.20;;
28519;SDS011;15732;48.534;20.382;2022-12-18T11:34:19;9.88;;;4.05;;
28519;SDS011;15732;48.534;20.382;2022-12-18T11:36:53;11.75;;;5.68;;
28519;SDS011;15732;48.534;20.382;2022-12-18T11:39:24;15.85;;;6.25;;
28519;SDS011;15732;48.534;20.382;2022-12-18T11:42:50;13.23;;;4.65;;
28519;SDS011;15732;48.534;20.382;2022-12-18T11:45:20;14.93;;;3.88;;
28519;SDS011;15732;48.534;20.382;2022-12-18T11:53:13;15.05;;;4.80;;
28519;SDS011;15732;48.534;20.382;2022-12-18T11:55:54;14.85;;;4.75;;
28519;SDS011;15732;48.534;20.382;2022-12-18T11:59:07;18.20;;;5.97;;
28519;SDS011;15732;48.534;20.382;2022-12-18T12:10:26;12.90;;;5.18;;
28519;SDS011;15732;48.534;20.382;2022-12-18T12:13:07;8.98;;;4.85;;
28519;SDS011;15732;48.534;20.382;2022-12-18T12:19:02;13.57;;;4.05;;
28519;SDS011;15732;48.534;20.382;2022-12-18T12:21:47;11.75;;;4.53;;
28519;SDS011;15732;48.534;20.382;2022-12-18T12:27:04;9.25;;;4.20;;
28519;SDS011;15732;48.534;20.382;2022-12-18T12:38:25;6.47;;;3.33;;
28519;SDS011;15732;48.534;20.382;2022-12-18T12:41:05;23.55;;;6.30;;
28519;SDS011;15732;48.534;20.382;2022-12-18T12:43:55;14.05;;;5.45;;
28519;SDS011;15732;48.534;20.382;2022-12-18T12:46:24;12.25;;;4.20;;
28519;SDS011;15732;48.534;20.382;2022-12-18T12:48:56;10.25;;;5.05;;
28519;SDS011;15732;48.534;20.382;2022-12-18T12:51:34;14.68;;;5.57;;
28519;SDS011;15732;48.534;20.382;2022-12-18T12:54:05;13.55;;;5.25;;
28519;SDS011;15732;48.534;20.382;2022-12-18T12:56:44;19.88;;;5.32;;
28519;SDS011;15732;48.534;20.382;2022-12-18T13:02:32;14.45;;;4.93;;
28519;SDS011;15732;48.534;20.382;2022-12-18T13:07:55;17.33;;;4.40;;
28519;SDS011;15732;48.534;20.382;2022-12-18T13:10:47;16.27;;;6.45;;
28519;SDS011;15732;48.534;20.382;2022-12-18T13:13:14;15.30;;;5.70;;
28519;SDS011;15732;48.534;20.382;2022-12-18T13:15:43;10.57;;;4.95;;
28519;SDS011;15732;48.534;20.382;2022-12-18T13:18:32;14.60;;;4.45;;
28519;SDS011;15732;48.534;20.382;2022-12-18T13:23:31;10.18;;;4.63;;
28519;SDS011;15732;48.534;20.382;2022-12-18T13:34:16;27.55;;;9.23;;
28519;SDS011;15732;48.534;20.382;2022-12-18T13:36:45;22.15;;;9.35;;
28519;SDS011;15732;48.534;20.382;2022-12-18T13:41:48;21.50;;;6.60;;
28519;SDS011;15732;48.534;20.382;2022-12-18T13:44:32;22.92;;;10.32;;
28519;SDS011;15732;48.534;20.382;2022-12-18T13:47:04;29.08;;;8.25;;
28519;SDS011;15732;48.534;20.382;2022-12-18T13:49:36;20.25;;;6.47;;
28519;SDS011;15732;48.534;20.382;2022-12-18T13:52:34;14.02;;;5.65;;
28519;SDS011;15732;48.534;20.382;2022-12-18T13:55:05;14.60;;;6.72;;
28519;SDS011;15732;48.534;20.382;2022-12-18T14:02:48;16.92;;;6.18;;
28519;SDS011;15732;48.534;20.382;2022-12-18T14:07:48;16.50;;;6.63;;
28519;SDS011;15732;48.534;20.382;2022-12-18T14:10:15;14.98;;;5.63;;
28519;SDS011;15732;48.534;20.382;2022-12-18T14:12:47;11.95;;;4.88;;
28519;SDS011;15732;48.534;20.382;2022-12-18T14:15:24;13.13;;;4.65;;
28519;SDS011;15732;48.534;20.382;2022-12-18T14:21:01;22.75;;;7.68;;
28519;SDS011;15732;48.534;20.382;2022-12-18T14:23:37;11.48;;;5.13;;
28519;SDS011;15732;48.534;20.382;2022-12-18T14:29:18;13.57;;;5.85;;
28519;SDS011;15732;48.534;20.382;2022-12-18T14:31:45;28.50;;;9.68;;
28519;SDS011;15732;48.534;20.382;2022-12-18T14:34:16;26.40;;;10.60;;
28519;SDS011;15732;48.534;20.382;2022-12-18T14:36:51;32.35;;;12.85;;
28519;SDS011;15732;48.534;20.382;2022-12-18T14:39:18;40.88;;;14.85;;
28519;SDS011;15732;48.534;20.382;2022-12-18T14:41:48;33.67;;;14.38;;
28519;SDS011;15732;48.534;20.382;2022-12-18T14:44:15;33.90;;;12.98;;
28519;SDS011;15732;48.534;20.382;2022-12-18T14:46:43;29.45;;;12.52;;
28519;SDS011;15732;48.534;20.382;2022-12-18T14:52:03;27.33;;;11.77;;
28519;SDS011;15732;48.534;20.382;2022-12-18T14:54:32;21.77;;;8.48;;
28519;SDS011;15732;48.534;20.382;2022-12-18T14:57:04;21.88;;;7.53;;
28519;SDS011;15732;48.534;20.382;2022-12-18T14:59:44;33.28;;;7.55;;
28519;SDS011;15732;48.534;20.382;2022-12-18T15:02:17;39.53;;;7.13;;
28519;SDS011;15732;48.534;20.382;2022-12-18T15:07:46;21.10;;;9.13;;
28519;SDS011;15732;48.534;20.382;2022-12-18T15:10:15;18.70;;;6.40;;
28519;SDS011;15732;48.534;20.382;2022-12-18T15:20:38;20.98;;;10.43;;
28519;SDS011;15732;48.534;20.382;2022-12-18T15:23:20;88.05;;;31.40;;
28519;SDS011;15732;48.534;20.382;2022-12-18T15:26:02;38.10;;;17.45;;
28519;SDS011;15732;48.534;20.382;2022-12-18T15:31:19;20.42;;;7.72;;
28519;SDS011;15732;48.534;20.382;2022-12-18T15:36:18;15.73;;;5.05;;
28519;SDS011;15732;48.534;20.382;2022-12-18T15:38:48;9.63;;;4.45;;
28519;SDS011;15732;48.534;20.382;2022-12-18T15:43:44;15.95;;;5.22;;
28519;SDS011;15732;48.534;20.382;2022-12-18T15:46:14;14.23;;;3.95;;
28519;SDS011;15732;48.534;20.382;2022-12-18T15:48:49;9.70;;;3.65;;
28519;SDS011;15732;48.534;20.382;2022-12-18T15:51:32;13.80;;;6.35;;
28519;SDS011;15732;48.534;20.382;2022-12-18T15:54:04;12.10;;;4.85;;
28519;SDS011;15732;48.534;20.382;2022-12-18T15:56:35;14.23;;;6.03;;
28519;SDS011;15732;48.534;20.382;2022-12-18T15:59:20;18.02;;;6.13;;
28519;SDS011;15732;48.534;20.382;2022-12-18T16:01:52;32.30;;;9.02;;
28519;SDS011;15732;48.534;20.382;2022-12-18T16:04:20;26.25;;;8.50;;
28519;SDS011;15732;48.534;20.382;2022-12-18T16:06:48;26.08;;;6.47;;
28519;SDS011;15732;48.534;20.382;2022-12-18T16:09:15;22.58;;;6.93;;
28519;SDS011;15732;48.534;20.382;2022-12-18T16:11:42;15.40;;;6.63;;
28519;SDS011;15732;48.534;20.382;2022-12-18T16:14:20;28.77;;;7.65;;
28519;SDS011;15732;48.534;20.382;2022-12-18T16:16:57;33.45;;;9.85;;
28519;SDS011;15732;48.534;20.382;2022-12-18T16:19:27;19.13;;;8.40;;
28519;SDS011;15732;48.534;20.382;2022-12-18T16:21:55;27.52;;;8.23;;
28519;SDS011;15732;48.534;20.382;2022-12-18T16:24:28;18.98;;;7.68;;
28519;SDS011;15732;48.534;20.382;2022-12-18T16:26:57;19.88;;;7.70;;
28519;SDS011;15732;48.534;20.382;2022-12-18T16:29:26;31.42;;;8.60;;
28519;SDS011;15732;48.534;20.382;2022-12-18T16:31:54;25.38;;;11.93;;
28519;SDS011;15732;48.534;20.382;2022-12-18T16:34:28;26.30;;;9.05;;
28519;SDS011;15732;48.534;20.382;2022-12-18T16:37:00;22.10;;;8.75;;
28519;SDS011;15732;48.534;20.382;2022-12-18T16:39:43;22.50;;;10.70;;
28519;SDS011;15732;48.534;20.382;2022-12-18T16:42:14;25.27;;;11.07;;
28519;SDS011;15732;48.534;20.382;2022-12-18T16:44:45;26.00;;;8.10;;
28519;SDS011;15732;48.534;20.382;2022-12-18T16:47:13;27.67;;;9.35;;
28519;SDS011;15732;48.534;20.382;2022-12-18T16:49:40;32.78;;;10.50;;
28519;SDS011;15732;48.534;20.382;2022-12-18T16:52:12;22.63;;;8.52;;
28519;SDS011;15732;48.534;20.382;2022-12-18T16:54:39;37.53;;;9.10;;
28519;SDS011;15732;48.534;20.382;2022-12-18T16:57:08;29.38;;;7.20;;
28519;SDS011;15732;48.534;20.382;2022-12-18T16:59:37;24.00;;;8.02;;
28519;SDS011;15732;48.534;20.382;2022-12-18T17:02:05;19.70;;;8.02;;
28519;SDS011;15732;48.534;20.382;2022-12-18T17:04:37;26.52;;;8.00;;
28519;SDS011;15732;48.534;20.382;2022-12-18T17:07:05;38.72;;;8.98;;
28519;SDS011;15732;48.534;20.382;2022-12-18T17:09:32;33.00;;;10.27;;